createdAt,value
2022-09-16T00:00:55.412Z,8.50
2022-09-16T00:03:23.563Z,8.23
2022-09-16T00:05:52.440Z,9.48
2022-09-16T00:08:20.925Z,8.25
2022-09-16T00:10:49.025Z,7.22
2022-09-16T00:13:18.493Z,6.20
2022-09-16T00:15:46.988Z,7.28
2022-09-16T00:18:15.239Z,8.63
2022-09-16T00:20:46.884Z,6.65
2022-09-16T00:23:14.963Z,6.65
2022-09-16T00:25:43.163Z,7.72
2022-09-16T00:28:11.441Z,7.28
2022-09-16T00:30:40.854Z,5.40
2022-09-16T00:33:09.526Z,5.95
2022-09-16T00:35:37.703Z,6.53
2022-09-16T00:38:05.790Z,5.15
2022-09-16T00:40:33.910Z,6.85
2022-09-16T00:43:02.119Z,8.63
2022-09-16T00:45:31.760Z,6.57
2022-09-16T00:48:02.338Z,6.50
2022-09-16T00:50:32.704Z,7.00
2022-09-16T00:53:00.796Z,6.55
2022-09-16T00:55:29.927Z,5.25
2022-09-16T00:58:00.626Z,11.13
2022-09-16T01:00:29.002Z,7.03
2022-09-16T01:02:57.087Z,6.03
2022-09-16T01:05:26.862Z,7.32
2022-09-16T01:07:55.448Z,6.57
2022-09-16T01:10:24.657Z,6.85
2022-09-16T01:12:55.375Z,6.70
2022-09-16T01:15:23.416Z,5.22
2022-09-16T01:18:01.105Z,6.25
2022-09-16T01:21:23.086Z,9.13
2022-09-16T01:24:24.697Z,7.43
2022-09-16T01:27:14.945Z,6.35
2022-09-16T01:29:54.873Z,5.63
2022-09-16T01:32:25.560Z,5.05
2022-09-16T01:34:55.154Z,5.93
2022-09-16T01:37:27.051Z,7.70
2022-09-16T01:39:59.786Z,4.57
2022-09-16T01:42:31.317Z,5.07
2022-09-16T01:45:01.821Z,6.40
2022-09-16T01:47:34.773Z,5.00
2022-09-16T01:50:04.739Z,6.05
2022-09-16T01:52:38.838Z,5.45
2022-09-16T01:55:08.356Z,6.03
2022-09-16T01:57:38.218Z,6.32
2022-09-16T02:00:07.817Z,6.32
2022-09-16T02:02:39.662Z,7.85
2022-09-16T02:05:09.653Z,5.40
2022-09-16T02:07:39.697Z,5.13
2022-09-16T02:10:10.233Z,5.65
2022-09-16T02:12:39.587Z,5.28
2022-09-16T02:15:09.504Z,5.53
2022-09-16T02:17:42.723Z,5.95
2022-09-16T02:20:11.932Z,4.68
2022-09-16T02:22:42.446Z,4.40
2022-09-16T02:25:10.964Z,7.28
2022-09-16T02:27:39.376Z,7.13
2022-09-16T02:30:09.175Z,4.72
2022-09-16T02:32:39.703Z,4.20
2022-09-16T02:35:08.559Z,7.75
2022-09-16T02:37:40.712Z,6.88
2022-09-16T02:40:11.826Z,5.05
2022-09-16T02:42:39.966Z,5.57
2022-09-16T02:45:09.159Z,4.97
2022-09-16T02:47:41.731Z,5.93
2022-09-16T02:50:11.613Z,4.95
2022-09-16T02:52:40.511Z,7.03
2022-09-16T02:55:12.619Z,5.38
2022-09-16T02:57:41.712Z,4.95
2022-09-16T03:00:10.685Z,5.25
2022-09-16T03:02:40.163Z,6.88
2022-09-16T03:05:09.603Z,10.48
2022-09-16T03:07:37.723Z,4.63
2022-09-16T03:10:06.609Z,5.20
2022-09-16T03:12:52.300Z,6.05
2022-09-16T03:15:38.150Z,4.45
2022-09-16T03:18:33.586Z,3.88
2022-09-16T03:21:02.170Z,5.45
2022-09-16T03:23:37.772Z,10.02
2022-09-16T03:26:08.930Z,4.93
2022-09-16T03:28:39.098Z,4.93
2022-09-16T03:31:08.612Z,3.25
2022-09-16T03:33:40.612Z,8.25
2022-09-16T03:36:09.303Z,5.20
2022-09-16T03:38:37.764Z,6.35
2022-09-16T03:41:07.504Z,4.70
2022-09-16T03:43:41.014Z,7.07
2022-09-16T03:46:11.623Z,4.68
2022-09-16T03:48:41.085Z,4.38
2022-09-16T03:51:09.152Z,4.70
2022-09-16T03:53:37.200Z,5.07
2022-09-16T03:56:05.313Z,4.40
2022-09-16T03:58:33.417Z,4.95
2022-09-16T04:01:01.530Z,4.30
2022-09-16T04:03:33.151Z,8.20
2022-09-16T04:06:03.066Z,6.13
2022-09-16T04:08:31.089Z,3.75
2022-09-16T04:11:00.366Z,3.40
2022-09-16T04:13:30.115Z,5.40
2022-09-16T04:15:58.331Z,3.60
2022-09-16T04:18:26.553Z,6.63
2022-09-16T04:20:57.708Z,3.55
2022-09-16T04:23:27.300Z,6.45
2022-09-16T04:25:56.308Z,3.55
2022-09-16T04:28:24.553Z,4.35
2022-09-16T04:30:52.962Z,5.70
2022-09-16T04:33:21.096Z,7.55
2022-09-16T04:35:49.161Z,5.68
2022-09-16T04:38:17.293Z,6.70
2022-09-16T04:40:46.707Z,4.47
2022-09-16T04:43:15.093Z,5.72
2022-09-16T04:45:43.350Z,3.70
2022-09-16T04:48:11.386Z,5.55
2022-09-16T04:50:39.497Z,6.70
2022-09-16T04:53:07.554Z,5.50
2022-09-16T04:55:35.587Z,3.78
2022-09-16T04:58:04.995Z,4.13
2022-09-16T05:00:33.005Z,4.32
2022-09-16T05:03:01.142Z,4.93
2022-09-16T05:05:29.277Z,4.28
2022-09-16T05:07:57.652Z,10.20
2022-09-16T05:10:25.718Z,4.07
2022-09-16T05:12:54.233Z,6.90
2022-09-16T05:15:23.686Z,2.95
2022-09-16T05:17:51.999Z,2.92
2022-09-16T05:20:20.392Z,5.78
2022-09-16T05:22:51.062Z,2.55
2022-09-16T05:25:19.256Z,5.25
2022-09-16T05:27:47.294Z,3.10
2022-09-16T05:30:17.292Z,5.03
2022-09-16T05:32:46.772Z,3.42
2022-09-16T05:35:14.994Z,3.53
2022-09-16T05:37:43.045Z,3.50
2022-09-16T05:40:11.359Z,5.10
2022-09-16T05:42:39.433Z,3.13
2022-09-16T05:45:08.799Z,2.63
2022-09-16T05:47:36.868Z,6.18
2022-09-16T05:50:07.251Z,4.63
2022-09-16T05:52:35.352Z,2.55
2022-09-16T05:55:03.423Z,4.72
2022-09-16T05:57:31.522Z,3.00
2022-09-16T05:59:59.575Z,3.17
2022-09-16T06:02:27.825Z,4.93
2022-09-16T06:04:56.539Z,3.50
2022-09-16T06:07:26.878Z,4.78
2022-09-16T06:09:55.432Z,4.03
2022-09-16T06:12:23.635Z,2.22
2022-09-16T06:14:51.898Z,5.60
2022-09-16T06:17:20.469Z,10.45
2022-09-16T06:19:48.583Z,6.22
2022-09-16T06:22:16.652Z,3.85
2022-09-16T06:24:46.155Z,4.05
2022-09-16T06:27:14.691Z,2.33
2022-09-16T06:29:42.909Z,2.72
2022-09-16T06:32:11.039Z,2.95
2022-09-16T06:34:39.134Z,3.65
2022-09-16T06:37:07.381Z,4.35
2022-09-16T06:39:35.945Z,5.55
2022-09-16T06:42:05.663Z,11.07
2022-09-16T06:44:41.615Z,6.45
2022-09-16T06:47:09.888Z,7.63
2022-09-16T06:49:37.974Z,9.05
2022-09-16T06:52:06.076Z,10.93
2022-09-16T06:54:34.423Z,9.10
2022-09-16T06:57:02.493Z,13.30
2022-09-16T06:59:32.007Z,13.15
2022-09-16T07:02:00.168Z,14.57
2022-09-16T07:04:28.383Z,13.43
2022-09-16T07:07:09.223Z,11.82
2022-09-16T07:09:37.996Z,16.98
2022-09-16T07:12:06.156Z,24.75
2022-09-16T07:14:37.690Z,27.77
2022-09-16T07:17:06.020Z,18.48
2022-09-16T07:19:34.150Z,17.45
2022-09-16T07:22:02.203Z,18.40
2022-09-16T07:24:30.992Z,17.30
2022-09-16T07:26:59.306Z,16.10
2022-09-16T07:29:27.983Z,16.50
2022-09-16T07:31:57.447Z,21.67
2022-09-16T07:34:25.628Z,15.57
2022-09-16T07:36:53.690Z,18.63
2022-09-16T07:39:22.376Z,18.98
2022-09-16T07:41:50.463Z,15.02
2022-09-16T07:44:20.488Z,14.52
2022-09-16T07:46:51.250Z,13.48
2022-09-16T07:49:21.113Z,23.15
2022-09-16T07:51:49.426Z,16.08
2022-09-16T07:54:18.312Z,20.73
2022-09-16T07:56:46.425Z,18.15
2022-09-16T07:59:18.359Z,17.15
2022-09-16T08:01:48.278Z,34.10
2022-09-16T08:04:16.866Z,30.02
2022-09-16T08:06:46.320Z,20.88
2022-09-16T08:09:37.351Z,33.50
2022-09-16T08:12:04.130Z,30.88
2022-09-16T08:14:33.272Z,25.75
2022-09-16T08:17:02.825Z,34.60
2022-09-16T08:19:30.928Z,27.60
2022-09-16T08:22:00.394Z,29.38
2022-09-16T08:24:28.505Z,29.65
2022-09-16T08:29:29.739Z,25.50
2022-09-16T08:31:57.878Z,23.25
2022-09-16T08:34:26.091Z,28.10
2022-09-16T08:36:54.198Z,23.02
2022-09-16T08:39:23.624Z,18.33
2022-09-16T08:42:05.104Z,20.58
2022-09-16T08:44:37.685Z,16.63
2022-09-16T08:47:08.513Z,20.30
2022-09-16T08:49:38.240Z,20.42
2022-09-16T08:52:11.593Z,20.55
2022-09-16T08:54:43.343Z,20.83
2022-09-16T08:57:14.728Z,19.67
2022-09-16T08:59:46.339Z,16.95
2022-09-16T09:02:36.823Z,19.67
2022-09-16T09:05:14.839Z,15.65
2022-09-16T09:07:49.488Z,12.38
2022-09-16T09:10:24.523Z,19.20
2022-09-16T09:12:57.393Z,16.80
2022-09-16T09:15:31.257Z,15.80
2022-09-16T09:18:08.180Z,16.67
2022-09-16T09:20:41.286Z,14.60
2022-09-16T09:23:17.002Z,15.35
2022-09-16T09:25:50.311Z,16.55
2022-09-16T09:28:37.802Z,17.17
2022-09-16T09:31:13.910Z,14.82
2022-09-16T09:36:37.620Z,12.35
2022-09-16T09:39:13.797Z,15.77
2022-09-16T09:41:45.979Z,15.00
2022-09-16T09:44:43.069Z,15.00
2022-09-16T09:47:13.010Z,14.38
2022-09-16T09:49:43.758Z,17.02
2022-09-16T09:52:15.091Z,16.85
2022-09-16T09:54:45.020Z,20.88
2022-09-16T09:57:15.905Z,18.88
2022-09-16T09:59:46.355Z,18.88
2022-09-16T10:02:16.953Z,15.98
2022-09-16T10:04:45.156Z,18.25
2022-09-16T10:07:13.525Z,16.10
2022-09-16T10:09:48.109Z,15.80
2022-09-16T10:12:27.813Z,16.63
2022-09-16T10:14:55.979Z,17.33
2022-09-16T10:17:24.017Z,19.90
2022-09-16T10:19:53.959Z,15.63
2022-09-16T10:22:25.003Z,16.88
2022-09-16T10:24:57.050Z,16.60
2022-09-16T10:27:28.331Z,17.00
2022-09-16T10:30:07.323Z,19.25
2022-09-16T10:32:39.098Z,17.63
2022-09-16T10:35:08.508Z,20.42
2022-09-16T10:37:37.559Z,16.35
2022-09-16T10:40:07.755Z,19.38
2022-09-16T10:42:37.248Z,21.05
2022-09-16T10:45:11.611Z,20.20
2022-09-16T10:47:39.780Z,17.77
2022-09-16T10:50:08.707Z,20.30
2022-09-16T10:52:42.869Z,16.08
2022-09-16T10:55:23.183Z,16.33
2022-09-16T10:57:52.720Z,18.88
2022-09-16T11:00:22.055Z,15.48
2022-09-16T11:03:20.140Z,21.10
2022-09-16T11:05:53.945Z,20.02
2022-09-16T11:08:25.183Z,20.92
2022-09-16T11:10:56.163Z,20.30
2022-09-16T11:13:45.683Z,17.60
2022-09-16T11:16:28.206Z,17.20
2022-09-16T11:18:58.922Z,22.15
2022-09-16T11:21:56.815Z,19.13
2022-09-16T11:25:02.387Z,19.95
2022-09-16T11:27:43.072Z,17.58
2022-09-16T11:30:13.589Z,18.80
2022-09-16T11:32:57.543Z,20.20
2022-09-16T11:36:00.939Z,15.55
2022-09-16T11:38:42.284Z,17.80
2022-09-16T11:41:16.537Z,18.42
2022-09-16T11:44:13.403Z,17.35
2022-09-16T11:46:46.870Z,16.77
2022-09-16T11:49:23.331Z,15.98
2022-09-16T11:52:01.969Z,14.77
2022-09-16T11:54:48.723Z,14.15
2022-09-16T11:57:19.671Z,16.73
2022-09-16T11:59:51.247Z,14.52
2022-09-16T12:02:23.714Z,14.68
2022-09-16T12:04:55.021Z,18.50
2022-09-16T12:07:26.608Z,15.43
2022-09-16T12:09:56.997Z,17.63
2022-09-16T12:12:26.922Z,16.25
2022-09-16T12:14:56.196Z,15.02
2022-09-16T12:17:28.055Z,14.10
2022-09-16T12:19:58.560Z,17.60
2022-09-16T12:22:29.566Z,14.75
2022-09-16T12:25:00.867Z,14.10
2022-09-16T12:27:35.654Z,12.57
2022-09-16T12:30:05.794Z,13.70
2022-09-16T12:32:39.088Z,12.98
2022-09-16T12:35:13.305Z,15.10
2022-09-16T12:37:45.276Z,13.45
2022-09-16T12:40:16.108Z,12.38
2022-09-16T12:43:15.119Z,11.98
2022-09-16T12:46:11.951Z,14.80
2022-09-16T12:49:21.795Z,12.55
2022-09-16T12:52:12.453Z,12.43
2022-09-16T12:55:08.071Z,10.77
2022-09-16T12:57:44.911Z,14.13
2022-09-16T13:00:15.697Z,11.27
2022-09-16T13:02:45.870Z,12.63
2022-09-16T13:05:19.571Z,12.30
2022-09-16T13:07:51.184Z,10.55
2022-09-16T13:10:26.386Z,9.80
2022-09-16T13:12:59.739Z,10.23
2022-09-16T13:15:30.328Z,13.68
2022-09-16T13:18:09.115Z,11.63
2022-09-16T13:20:41.291Z,9.80
2022-09-16T13:23:13.034Z,10.68
2022-09-16T13:25:47.158Z,10.23
2022-09-16T13:28:26.330Z,11.27
2022-09-16T13:30:54.508Z,9.95
2022-09-16T13:33:28.026Z,9.85
2022-09-16T13:36:17.213Z,9.02
2022-09-16T13:38:46.917Z,11.48
2022-09-16T13:41:15.257Z,8.95
2022-09-16T13:43:53.813Z,8.65
2022-09-16T13:46:30.831Z,9.35
2022-09-16T13:49:05.248Z,9.15
2022-09-16T13:51:39.806Z,9.73
2022-09-16T13:54:19.838Z,10.50
2022-09-16T13:56:54.419Z,7.80
2022-09-16T13:59:30.576Z,11.07
2022-09-16T14:02:05.078Z,10.45
2022-09-16T14:04:52.889Z,9.07
2022-09-16T14:07:29.490Z,11.60
2022-09-16T14:10:01.523Z,7.05
2022-09-16T14:12:36.087Z,9.02
2022-09-16T14:15:04.176Z,7.65
2022-09-16T14:17:34.989Z,7.53
2022-09-16T14:20:03.321Z,12.00
2022-09-16T14:22:33.739Z,7.82
2022-09-16T14:25:06.572Z,12.73
2022-09-16T14:27:41.097Z,9.52
2022-09-16T14:30:16.747Z,9.50
2022-09-16T14:32:44.901Z,6.95
2022-09-16T14:35:17.408Z,6.63
2022-09-16T14:37:47.399Z,9.32
2022-09-16T14:40:17.677Z,13.48
2022-09-16T14:42:47.206Z,6.68
2022-09-16T14:45:16.566Z,6.85
2022-09-16T14:47:51.745Z,8.68
2022-09-16T14:50:22.276Z,7.85
2022-09-16T14:52:56.706Z,6.47
2022-09-16T14:55:26.978Z,6.47
2022-09-16T14:57:55.034Z,7.03
2022-09-16T15:00:23.431Z,5.50
2022-09-16T15:02:53.021Z,7.53
2022-09-16T15:05:23.772Z,6.25
2022-09-16T15:08:12.613Z,6.20
2022-09-16T15:10:51.885Z,6.13
2022-09-16T15:13:21.620Z,5.85
2022-09-16T15:15:50.928Z,5.40
2022-09-16T15:18:24.239Z,4.95
2022-09-16T15:20:53.727Z,12.73
2022-09-16T15:23:24.420Z,10.18
2022-09-16T15:25:55.871Z,5.28
2022-09-16T15:28:24.070Z,5.30
2022-09-16T15:30:54.125Z,5.13
2022-09-16T15:33:31.083Z,6.47
2022-09-16T15:36:02.617Z,5.78
2022-09-16T15:38:31.218Z,5.25
2022-09-16T15:41:04.955Z,5.07
2022-09-16T15:43:36.565Z,5.20
2022-09-16T15:46:07.999Z,5.38
2022-09-16T15:48:37.724Z,7.25
2022-09-16T15:51:07.890Z,4.13
2022-09-16T15:53:39.589Z,7.60
2022-09-16T15:56:10.516Z,9.57
2022-09-16T15:58:41.890Z,4.72
2022-09-16T16:01:13.286Z,5.28
2022-09-16T16:03:50.541Z,4.82
2022-09-16T16:06:18.870Z,5.32
2022-09-16T16:08:48.428Z,3.53
2022-09-16T16:11:19.057Z,5.10
2022-09-16T16:13:47.347Z,5.43
2022-09-16T16:16:16.014Z,7.20
2022-09-16T16:18:44.533Z,4.65
2022-09-16T16:21:13.444Z,5.47
2022-09-16T16:23:41.532Z,4.82
2022-09-16T16:26:10.455Z,14.40
2022-09-16T16:28:39.970Z,8.95
2022-09-16T16:31:12.495Z,12.60
2022-09-16T16:33:44.695Z,8.25
2022-09-16T16:36:13.731Z,6.32
2022-09-16T16:38:41.876Z,8.10
2022-09-16T16:41:12.133Z,6.68
2022-09-16T16:43:41.623Z,9.00
2022-09-16T16:46:09.819Z,7.78
2022-09-16T16:48:38.158Z,8.27
2022-09-16T16:51:07.757Z,6.20
2022-09-16T16:53:35.852Z,14.77
2022-09-16T16:56:04.863Z,9.43
2022-09-16T16:58:33.127Z,7.63
2022-09-16T17:01:10.059Z,10.23
2022-09-16T17:03:38.477Z,6.43
2022-09-16T17:06:07.383Z,4.05
2022-09-16T17:08:35.782Z,8.13
2022-09-16T17:11:11.055Z,9.77
2022-09-16T17:13:39.304Z,5.00
2022-09-16T17:16:11.315Z,6.35
2022-09-16T17:18:40.165Z,8.95
2022-09-16T17:21:09.364Z,6.18
2022-09-16T17:23:37.591Z,7.90
2022-09-16T17:26:06.256Z,7.80
2022-09-16T17:28:34.334Z,4.57
2022-09-16T17:31:02.586Z,4.75
2022-09-16T17:33:32.169Z,5.18
2022-09-16T17:36:03.706Z,6.90
2022-09-16T17:38:31.788Z,5.55
2022-09-16T17:41:04.326Z,7.90
2022-09-16T17:43:32.960Z,4.95
2022-09-16T17:46:01.438Z,5.85
2022-09-16T17:48:31.034Z,5.97
2022-09-16T17:50:59.150Z,5.10
2022-09-16T17:53:27.256Z,6.40
2022-09-16T17:56:03.021Z,5.53
2022-09-16T17:58:31.372Z,13.45
2022-09-16T18:01:08.489Z,4.63
2022-09-16T18:03:38.265Z,6.03
2022-09-16T18:06:10.882Z,5.40
2022-09-16T18:08:39.043Z,6.55
2022-09-16T18:11:07.709Z,9.90
2022-09-16T18:13:36.529Z,7.00
2022-09-16T18:16:05.422Z,9.55
2022-09-16T18:18:33.735Z,8.80
2022-09-16T18:21:03.278Z,6.40
2022-09-16T18:23:31.418Z,8.32
2022-09-16T18:26:04.804Z,8.32
2022-09-16T18:28:42.105Z,8.98
2022-09-16T18:31:21.542Z,7.75
2022-09-16T18:33:51.746Z,5.63
2022-09-16T18:36:22.311Z,6.90
2022-09-16T18:38:51.797Z,5.70
2022-09-16T18:41:21.311Z,8.23
2022-09-16T18:43:53.013Z,10.15
2022-09-16T18:46:26.286Z,7.88
2022-09-16T18:48:55.237Z,9.00
2022-09-16T18:51:26.081Z,6.18
2022-09-16T18:53:55.723Z,8.65
2022-09-16T18:56:24.469Z,7.35
2022-09-16T18:59:17.218Z,6.15
2022-09-16T19:01:41.967Z,5.63
2022-09-16T19:04:11.403Z,4.63
2022-09-16T19:06:42.171Z,5.95
2022-09-16T19:09:12.308Z,6.50
2022-09-16T19:11:40.563Z,6.88
2022-09-16T19:14:09.458Z,7.38
2022-09-16T19:16:40.458Z,4.63
2022-09-16T19:19:08.849Z,4.78
2022-09-16T19:21:36.974Z,8.32
2022-09-16T19:24:08.510Z,5.07
2022-09-16T19:26:39.565Z,7.53
2022-09-16T19:29:07.857Z,6.35
2022-09-16T19:31:39.092Z,7.85
2022-09-16T19:34:07.273Z,5.18
2022-09-16T19:36:35.811Z,9.55
2022-09-16T19:39:06.153Z,5.95
2022-09-16T19:41:34.828Z,6.60
2022-09-16T19:44:05.041Z,7.47
2022-09-16T19:46:34.848Z,8.18
2022-09-16T19:49:03.179Z,6.05
2022-09-16T19:51:31.774Z,12.95
2022-09-16T19:54:00.838Z,8.38
2022-09-16T19:56:31.748Z,6.88
2022-09-16T19:59:01.417Z,7.78
2022-09-16T20:01:30.725Z,8.98
2022-09-16T20:03:58.970Z,8.38
2022-09-16T20:06:30.388Z,13.73
2022-09-16T20:08:59.791Z,5.00
2022-09-16T20:11:31.442Z,5.78
2022-09-16T20:14:00.412Z,7.35
2022-09-16T20:16:30.653Z,7.45
2022-09-16T20:18:58.881Z,6.20
2022-09-16T20:21:29.498Z,4.97
2022-09-16T20:23:57.824Z,11.70
2022-09-16T20:26:26.024Z,15.55
2022-09-16T20:28:56.312Z,8.50
2022-09-16T20:31:26.171Z,9.40
2022-09-16T20:33:54.360Z,8.52
2022-09-16T20:36:23.666Z,8.93
2022-09-16T20:38:52.442Z,11.35
2022-09-16T20:41:21.875Z,7.93
2022-09-16T20:43:50.157Z,5.88
2022-09-16T20:46:20.851Z,7.07
2022-09-16T20:48:49.084Z,10.32
2022-09-16T20:51:17.917Z,7.85
2022-09-16T20:53:46.209Z,8.05
2022-09-16T20:56:15.306Z,8.35
2022-09-16T20:58:43.402Z,13.90
2022-09-16T21:01:12.967Z,9.30
2022-09-16T21:03:42.812Z,12.52
2022-09-16T21:06:11.887Z,13.52
2022-09-16T21:08:39.918Z,11.38
2022-09-16T21:11:08.258Z,9.40
2022-09-16T21:13:36.287Z,12.07
2022-09-16T21:16:04.698Z,11.63
2022-09-16T21:18:33.027Z,9.00
2022-09-16T21:21:03.806Z,10.90
2022-09-16T21:23:32.010Z,14.52
2022-09-16T21:26:03.416Z,10.25
2022-09-16T21:28:31.849Z,7.07
2022-09-16T21:31:04.219Z,6.63
2022-09-16T21:33:35.923Z,10.10
2022-09-16T21:36:05.815Z,10.73
2022-09-16T21:38:34.252Z,9.75
2022-09-16T21:41:03.182Z,9.43
2022-09-16T21:43:32.431Z,10.20
2022-09-16T21:46:00.567Z,8.50
2022-09-16T21:48:31.388Z,8.25
2022-09-16T21:51:02.678Z,7.35
2022-09-16T21:53:33.390Z,7.70
2022-09-16T21:56:02.255Z,7.00
2022-09-16T21:58:30.321Z,8.45
2022-09-16T22:01:07.745Z,7.40
2022-09-16T22:03:36.108Z,7.82
2022-09-16T22:06:04.498Z,6.03
2022-09-16T22:08:34.168Z,7.43
2022-09-16T22:11:02.744Z,8.05
2022-09-16T22:13:31.415Z,7.05
2022-09-16T22:15:59.788Z,10.70
2022-09-16T22:18:28.570Z,7.63
2022-09-16T22:20:58.003Z,9.43
2022-09-16T22:23:26.183Z,9.32
2022-09-16T22:25:55.588Z,7.72
2022-09-16T22:28:23.776Z,8.93
2022-09-16T22:30:51.885Z,6.28
2022-09-16T22:33:19.931Z,7.35
2022-09-16T22:35:48.226Z,6.72
2022-09-16T22:38:16.278Z,10.07
2022-09-16T22:40:44.336Z,8.50
2022-09-16T22:43:13.782Z,6.47
2022-09-16T22:45:41.839Z,6.57
2022-09-16T22:48:09.888Z,5.75
2022-09-16T22:50:37.981Z,8.05
2022-09-16T22:53:06.036Z,9.10
2022-09-16T22:55:34.076Z,9.60
2022-09-16T22:58:02.227Z,7.03
2022-09-16T23:00:31.654Z,7.78
2022-09-16T23:02:59.750Z,7.50
2022-09-16T23:05:27.903Z,6.72
2022-09-16T23:07:55.939Z,7.47
2022-09-16T23:10:24.037Z,7.93
2022-09-16T23:12:52.152Z,9.90
2022-09-16T23:15:20.236Z,8.07
2022-09-16T23:17:49.678Z,6.35
2022-09-16T23:20:17.860Z,8.52
2022-09-16T23:22:45.962Z,10.68
2022-09-16T23:25:14.048Z,7.05
2022-09-16T23:27:42.143Z,7.05
2022-09-16T23:30:11.377Z,9.73
2022-09-16T23:32:39.487Z,5.43
2022-09-16T23:35:09.771Z,6.35
2022-09-16T23:37:37.891Z,8.73
2022-09-16T23:40:07.113Z,7.13
2022-09-16T23:42:37.213Z,9.32
2022-09-16T23:45:05.990Z,6.25
2022-09-16T23:47:34.110Z,7.57
2022-09-16T23:50:02.250Z,11.80
2022-09-16T23:52:31.662Z,8.13
2022-09-16T23:54:59.875Z,6.97
2022-09-16T23:57:27.951Z,7.85
2022-09-16T23:59:56.243Z,5.15
